S/y Merliz — SE2449 — position and weather

sailwx.info

Track history (hours):
 
Tides and Currents Weather Stations Pressure Air Temp Water Temp Dewpoint Dewpoint Depression Visibility Wind Speed Wind Dir Waves Ship Positions

S/y Merliz

Last reported at 2015-Jul-22 07:20 UTC. Time now 2015-Aug-03 00:27 UTC.
Position N 54°30' E 019°22'.
Warning: this ship's position is 11 days out of date.

Length 12 m.

Type: Sailing vessel. MMSI: 265694940.

Date/timePositionNaut miles runAvg speedWind from/ knotsBaromVisibWave heightAir tempDewpointWater temp
2015-Jul-22 07:20N 54°30' E 019°22'5 5.8
2015-Jul-22 06:28N 54°29' E 019°14'6 6.2
2015-Jul-22 05:31N 54°28' E 019°04'5 5.6
2015-Jul-22 04:33N 54°27' E 018°55'6 5.9
2015-Jul-22 03:33N 54°26' E 018°45'4 4.0
2015-Jul-22 02:33N 54°23' E 018°40'2 2.1
2015-Jul-22 01:33N 54°21' E 018°40'0 0.0
2015-Jul-22 00:15N 54°21' E 018°40'0 0.0
2015-Jul-21 23:33N 54°21' E 018°40'0 0.0
2015-Jul-21 22:24N 54°21' E 018°40'0 0.0
2015-Jul-21 21:33N 54°21' E 018°40'0 0.0
2015-Jul-21 20:30N 54°21' E 018°40'0 0.0
2015-Jul-21 19:27N 54°21' E 018°40'0 0.0
2015-Jul-21 17:21N 54°21' E 018°40'0 0.0
2015-Jul-21 08:14N 54°21' E 018°40'0 0.0
2015-Jul-21 07:32N 54°21' E 018°40'0 0.0
2015-Jul-21 06:26N 54°21' E 018°40'0 0.0
2015-Jul-21 05:05N 54°21' E 018°40'0 0.0
2015-Jul-21 03:20N 54°21' E 018°40'0 0.0
2015-Jul-21 02:29N 54°21' E 018°40'0 0.0
2015-Jul-20 23:20N 54°21' E 018°40'0 0.0
2015-Jul-20 15:08N 54°21' E 018°40'0 0.0
2015-Jul-20 10:23N 54°21' E 018°40'0 0.0
2015-Jul-20 09:08N 54°21' E 018°40'0 0.0
2015-Jul-20 07:30N 54°21' E 018°40'0 0.0
2015-Jul-20 05:24N 54°21' E 018°40'0 0.0
2015-Jul-20 04:33N 54°21' E 018°40'0 0.0
2015-Jul-20 03:33N 54°21' E 018°40'0 0.0
2015-Jul-20 02:30N 54°21' E 018°40'0 0.0
2015-Jul-20 01:30N 54°21' E 018°40'0 0.0
2015-Jul-20 00:30N 54°21' E 018°40'0 0.0
2015-Jul-19 23:30N 54°21' E 018°40'0 0.0
2015-Jul-19 22:15N 54°21' E 018°40'0 0.1
2015-Jul-19 14:16N 54°21' E 018°40'4 5.9
2015-Jul-19 13:33N 54°25' E 018°39'3 1.3
2015-Jul-19 11:32N 54°27' E 018°35'0 0.0
2015-Jul-19 10:32N 54°27' E 018°35'0 0.0
2015-Jul-19 09:32N 54°27' E 018°35'0 0.0
2015-Jul-19 08:32N 54°27' E 018°35'0 0.0
2015-Jul-19 07:32N 54°27' E 018°35'0 0.0
2015-Jul-19 06:32N 54°27' E 018°35'0 0.0
2015-Jul-19 05:32N 54°27' E 018°35'0 0.0
2015-Jul-19 04:32N 54°27' E 018°35'0 0.0
2015-Jul-19 00:32N 54°27' E 018°35'0 0.0
2015-Jul-18 23:32N 54°27' E 018°35'0 0.0
2015-Jul-18 22:32N 54°27' E 018°35'0 0.0
2015-Jul-18 21:32N 54°27' E 018°35'0 0.0
2015-Jul-18 20:32N 54°27' E 018°35'0 0.0
2015-Jul-18 19:32N 54°27' E 018°35'0 0.0
2015-Jul-18 18:32N 54°27' E 018°35'0 0.0
2015-Jul-18 17:32N 54°27' E 018°35'2 2.4
2015-Jul-18 16:33N 54°29' E 018°37'5 5.2
2015-Jul-18 15:33N 54°33' E 018°43'2 2.2
2015-Jul-18 14:33N 54°34' E 018°45'2 1.9
2015-Jul-18 13:33N 54°36' E 018°48'1 0.5
2015-Jul-18 12:32N 54°36' E 018°48'0 0.0
2015-Jul-18 11:32N 54°36' E 018°48'0 0.0
2015-Jul-18 10:29N 54°36' E 018°48'0 0.0
2015-Jul-18 09:32N 54°36' E 018°48'0 0.0
2015-Jul-18 08:29N 54°36' E 018°48'0 0.0
2015-Jul-18 07:32N 54°36' E 018°48'0 0.0
2015-Jul-18 06:32N 54°36' E 018°48'0 0.0
2015-Jul-18 05:32N 54°36' E 018°48'0 0.0
2015-Jul-18 04:32N 54°36' E 018°48'0 0.0
2015-Jul-18 03:32N 54°36' E 018°48'0 0.0
2015-Jul-18 02:32N 54°36' E 018°48'0 0.0
2015-Jul-18 01:29N 54°36' E 018°48'0 0.0
2015-Jul-18 00:32N 54°36' E 018°48'0 0.0
2015-Jul-17 23:32N 54°36' E 018°48'0 0.0
2015-Jul-17 22:32N 54°36' E 018°48'0 0.0
2015-Jul-17 21:32N 54°36' E 018°48'0 0.0
2015-Jul-17 20:32N 54°36' E 018°48'0 0.0
2015-Jul-17 19:32N 54°36' E 018°48'0 0.0
2015-Jul-17 18:32N 54°36' E 018°48'0 0.0
2015-Jul-17 17:32N 54°36' E 018°48'0 0.0
2015-Jul-17 16:32N 54°36' E 018°48'0 0.0
2015-Jul-17 15:29N 54°36' E 018°48'0 0.0
2015-Jul-17 14:32N 54°36' E 018°48'0 0.0
2015-Jul-17 13:32N 54°36' E 018°48'0 0.0
2015-Jul-17 12:32N 54°36' E 018°48'1 0.8
2015-Jul-17 11:33N 54°35' E 018°48'5 5.4
2015-Jul-17 10:33N 54°41' E 018°46'7 7.4
2015-Jul-17 09:33N 54°45' E 018°36'7 0.4
2015-Jul-16 17:33N 54°48' E 018°25'0 0.0
2015-Jul-16 09:06N 54°48' E 018°25'0 0.0
2015-Jul-16 07:24N 54°48' E 018°25'0 0.0
2015-Jul-16 05:30N 54°48' E 018°25'0 0.0
2015-Jul-15 22:33N 54°48' E 018°25'0 0.0
2015-Jul-15 21:21N 54°48' E 018°25'0 0.0
2015-Jul-15 18:06N 54°48' E 018°25'0 0.0
2015-Jul-15 15:21N 54°48' E 018°25'0 0.0
2015-Jul-15 13:09N 54°48' E 018°25'0 0.1
2015-Jul-15 12:31N 54°48' E 018°25'  
2015-Jul-13 06:30N 55°08' E 015°09'0 0.0
2015-Jul-13 05:30N 55°08' E 015°09'0 0.0
2015-Jul-13 04:30N 55°08' E 015°09'0 0.0
2015-Jul-13 03:30N 55°08' E 015°09'0 0.0
2015-Jul-12 13:18N 55°08' E 015°09'0 0.0
2015-Jul-12 12:30N 55°08' E 015°09'2 2.4
2015-Jul-12 11:33N 55°10' E 015°12'6 2.8
2015-Jul-12 09:20N 55°16' E 015°12'1 1.0
2015-Jul-12 08:28N 55°17' E 015°11'3 2.8
2015-Jul-12 07:31N 55°19' E 015°11'  
Track history (hours):
 
Tides and Currents Weather Stations Pressure Air Temp Water Temp Dewpoint Dewpoint Depression Visibility Wind Speed Wind Dir Waves Ship Positions

S/y Merliz

Last reported at 2015-Jul-22 07:20 UTC. Time now 2015-Aug-03 00:27 UTC.
Position N 54°30' E 019°22'.
Warning: this ship's position is 11 days out of date.

Length 12 m.

Type: Sailing vessel. MMSI: 265694940.

Date/timePositionNaut miles runAvg speedWind from/ knotsBaromVisibWave heightAir tempDewpointWater temp
2015-Jul-22 07:20N 54°30' E 019°22'5 5.8
2015-Jul-22 06:28N 54°29' E 019°14'6 6.2
2015-Jul-22 05:31N 54°28' E 019°04'5 5.6
2015-Jul-22 04:33N 54°27' E 018°55'6 5.9
2015-Jul-22 03:33N 54°26' E 018°45'4 4.0
2015-Jul-22 02:33N 54°23' E 018°40'2 2.1
2015-Jul-22 01:33N 54°21' E 018°40'0 0.0
2015-Jul-22 00:15N 54°21' E 018°40'0 0.0
2015-Jul-21 23:33N 54°21' E 018°40'0 0.0
2015-Jul-21 22:24N 54°21' E 018°40'0 0.0
2015-Jul-21 21:33N 54°21' E 018°40'0 0.0
2015-Jul-21 20:30N 54°21' E 018°40'0 0.0
2015-Jul-21 19:27N 54°21' E 018°40'0 0.0
2015-Jul-21 17:21N 54°21' E 018°40'0 0.0
2015-Jul-21 08:14N 54°21' E 018°40'0 0.0
2015-Jul-21 07:32N 54°21' E 018°40'0 0.0
2015-Jul-21 06:26N 54°21' E 018°40'0 0.0
2015-Jul-21 05:05N 54°21' E 018°40'0 0.0
2015-Jul-21 03:20N 54°21' E 018°40'0 0.0
2015-Jul-21 02:29N 54°21' E 018°40'0 0.0
2015-Jul-20 23:20N 54°21' E 018°40'0 0.0
2015-Jul-20 15:08N 54°21' E 018°40'0 0.0
2015-Jul-20 10:23N 54°21' E 018°40'0 0.0
2015-Jul-20 09:08N 54°21' E 018°40'0 0.0
2015-Jul-20 07:30N 54°21' E 018°40'0 0.0
2015-Jul-20 05:24N 54°21' E 018°40'0 0.0
2015-Jul-20 04:33N 54°21' E 018°40'0 0.0
2015-Jul-20 03:33N 54°21' E 018°40'0 0.0
2015-Jul-20 02:30N 54°21' E 018°40'0 0.0
2015-Jul-20 01:30N 54°21' E 018°40'0 0.0
2015-Jul-20 00:30N 54°21' E 018°40'0 0.0
2015-Jul-19 23:30N 54°21' E 018°40'0 0.0
2015-Jul-19 22:15N 54°21' E 018°40'0 0.1
2015-Jul-19 14:16N 54°21' E 018°40'4 5.9
2015-Jul-19 13:33N 54°25' E 018°39'3 1.3
2015-Jul-19 11:32N 54°27' E 018°35'0 0.0
2015-Jul-19 10:32N 54°27' E 018°35'0 0.0
2015-Jul-19 09:32N 54°27' E 018°35'0 0.0
2015-Jul-19 08:32N 54°27' E 018°35'0 0.0
2015-Jul-19 07:32N 54°27' E 018°35'0 0.0
2015-Jul-19 06:32N 54°27' E 018°35'0 0.0
2015-Jul-19 05:32N 54°27' E 018°35'0 0.0
2015-Jul-19 04:32N 54°27' E 018°35'0 0.0
2015-Jul-19 00:32N 54°27' E 018°35'0 0.0
2015-Jul-18 23:32N 54°27' E 018°35'0 0.0
2015-Jul-18 22:32N 54°27' E 018°35'0 0.0
2015-Jul-18 21:32N 54°27' E 018°35'0 0.0
2015-Jul-18 20:32N 54°27' E 018°35'0 0.0
2015-Jul-18 19:32N 54°27' E 018°35'0 0.0
2015-Jul-18 18:32N 54°27' E 018°35'0 0.0
2015-Jul-18 17:32N 54°27' E 018°35'2 2.4
2015-Jul-18 16:33N 54°29' E 018°37'5 5.2
2015-Jul-18 15:33N 54°33' E 018°43'2 2.2
2015-Jul-18 14:33N 54°34' E 018°45'2 1.9
2015-Jul-18 13:33N 54°36' E 018°48'1 0.5
2015-Jul-18 12:32N 54°36' E 018°48'0 0.0
2015-Jul-18 11:32N 54°36' E 018°48'0 0.0
2015-Jul-18 10:29N 54°36' E 018°48'0 0.0
2015-Jul-18 09:32N 54°36' E 018°48'0 0.0
2015-Jul-18 08:29N 54°36' E 018°48'0 0.0
2015-Jul-18 07:32N 54°36' E 018°48'0 0.0
2015-Jul-18 06:32N 54°36' E 018°48'0 0.0
2015-Jul-18 05:32N 54°36' E 018°48'0 0.0
2015-Jul-18 04:32N 54°36' E 018°48'0 0.0
2015-Jul-18 03:32N 54°36' E 018°48'0 0.0
2015-Jul-18 02:32N 54°36' E 018°48'0 0.0
2015-Jul-18 01:29N 54°36' E 018°48'0 0.0
2015-Jul-18 00:32N 54°36' E 018°48'0 0.0
2015-Jul-17 23:32N 54°36' E 018°48'0 0.0
2015-Jul-17 22:32N 54°36' E 018°48'0 0.0
2015-Jul-17 21:32N 54°36' E 018°48'0 0.0
2015-Jul-17 20:32N 54°36' E 018°48'0 0.0
2015-Jul-17 19:32N 54°36' E 018°48'0 0.0
2015-Jul-17 18:32N 54°36' E 018°48'0 0.0
2015-Jul-17 17:32N 54°36' E 018°48'0 0.0
2015-Jul-17 16:32N 54°36' E 018°48'0 0.0
2015-Jul-17 15:29N 54°36' E 018°48'0 0.0
2015-Jul-17 14:32N 54°36' E 018°48'0 0.0
2015-Jul-17 13:32N 54°36' E 018°48'0 0.0
2015-Jul-17 12:32N 54°36' E 018°48'1 0.8
2015-Jul-17 11:33N 54°35' E 018°48'5 5.4
2015-Jul-17 10:33N 54°41' E 018°46'7 7.4
2015-Jul-17 09:33N 54°45' E 018°36'7 0.4
2015-Jul-16 17:33N 54°48' E 018°25'0 0.0
2015-Jul-16 09:06N 54°48' E 018°25'0 0.0
2015-Jul-16 07:24N 54°48' E 018°25'0 0.0
2015-Jul-16 05:30N 54°48' E 018°25'0 0.0
2015-Jul-15 22:33N 54°48' E 018°25'0 0.0
2015-Jul-15 21:21N 54°48' E 018°25'0 0.0
2015-Jul-15 18:06N 54°48' E 018°25'0 0.0
2015-Jul-15 15:21N 54°48' E 018°25'0 0.0
2015-Jul-15 13:09N 54°48' E 018°25'0 0.1
2015-Jul-15 12:31N 54°48' E 018°25'  
2015-Jul-13 06:30N 55°08' E 015°09'0 0.0
2015-Jul-13 05:30N 55°08' E 015°09'0 0.0
2015-Jul-13 04:30N 55°08' E 015°09'0 0.0
2015-Jul-13 03:30N 55°08' E 015°09'0 0.0
2015-Jul-12 13:18N 55°08' E 015°09'0 0.0
2015-Jul-12 12:30N 55°08' E 015°09'2 2.4
2015-Jul-12 11:33N 55°10' E 015°12'6 2.8
2015-Jul-12 09:20N 55°16' E 015°12'1 1.0
2015-Jul-12 08:28N 55°17' E 015°11'3 2.8
2015-Jul-12 07:31N 55°19' E 015°11'  

Dump ship's entire track history